Augusta State Information

FAA: AUG - ICAO: KAUG

Augusta State (Airport) Location

State Maine
County Kennebec
City Augusta
Augusta State (Airport) is 1 mile northwest of Augusta, ME.
Latitude 44-19-14.3390N
Longitude 069-47-50.3450W
Elevation 351ft

Augusta State METARs

METAR KAUG 171953Z AUTO 29014G21KT 10SM BKN090 OVC110 20/04 A2951 RMK AO2 SLP993 T02000044
Altimeter 29.51"
Temperature 20.0°C (68.0°F)
Wind 290° at 14KT with gusts to 21KT
Clouds broken at 9,000ft overcast at 11,000ft
Visibility 10.0mi
Time observed: 2022-05-17T19:53:00Z

Augusta State (Airport) Details

Status Operational
Activation April 1940
Ownership Public
Usage Public
Chart MONTREAL
ATC on-site No
Beacon schedule sunset-sunrise
Beacon color clear green

Augusta State (Airport) Contacts

Owner STATE OF MAINE
Owner address 16 STATE HOUSE STATION, AUGUSTA, ME 04333
Owner phone 207-624-3250
Manager RENE' SIMON
Manager address LA DEPT OF AG AND FORESTRY, 5825 FLORIDA BLVD, SUITE 1002, BATON ROUGE, LA 70806-3481
Manager phone (225) 922-8074

Augusta State Radio Frequencies

Augusta State (Airport) Radio Frequencies

UNICOM 123
Common traffic advisory frequency (CTAF) 123